Georgia, Vermont
Current Conditions -  °F | °C
As of 10:54 AM on Tuesday 21 Oct 2014 (Local Time) from KBTV Reporting Station
Overcast Overcast  
Wind Chill: 47°   Ceiling: 7000
Heat Index: 49°   Visibility: 10mi
Dew Point: 44°   Wind: 5mph
Humidity: 83%   Direction: 80°E
Pressure: 29.97"   Gusts: NA
Location:  44.6579°N, 73.1453°W
Report Text: KBTV 211454Z 08004KT 10SM OVC070 09/07 A2997 RMK AO2 RAE34 SLP152 P0001 60002 T00940067 51007
Loading
Personal Weather Stations






























Interactive Weather Map
Tropical Storm Tracking
New forecast layout! Learn more

10-Day Weather Forecast

Advertisements
Track Severe Weather on mobile